Data for 01/19/2008

Time Sea-Level Adjusted Pressure Absolute Pressure Temperature Relative Humidity Dew Point   
(mb) (inHg) (mb) (inHg) (C) (F) (%) (C) (F)
00:05 1020 30.12 850 25.1 -6.1 20.9 87 -8 17.7
00:10 1020 30.12 849 25.07 -6 21.1 88 -7.8 18
00:15 1020 30.12 849 25.07 -6 21.2 89 -7.6 18.4
00:20 1020 30.12 849 25.07 -6 21.2 89 -7.4 18.6
00:25 1020 30.12 849 25.07 -6 21.2 90 -7.4 18.6
00:30 1020 30.12 849 25.07 -6 21.1 90 -7.5 18.5
00:35 1020 30.12 849 25.07 -6.2 20.9 91 -7.4 18.6
00:40 1020 30.12 849 25.07 -6.2 20.8 91 -7.4 18.6
00:45 1020 30.12 849 25.07 -6.3 20.7 92 -7.4 18.6
00:50 1020 30.12 849 25.07 -6.4 20.5 93 -7.4 18.7
00:55 1020 30.12 849 25.07 -6.5 20.3 92 -7.5 18.4
01:00 1020 30.12 849 25.07 -6.6 20.1 93 -7.6 18.4
01:05 1020 30.12 849 25.07 -6.6 20.1 93 -7.6 18.3
01:10 1019 30.09 849 25.07 -6.6 20.1 93 -7.5 18.4
01:15 1019 30.09 849 25.07 -6.6 20.1 93 -7.5 18.5
01:20 1019 30.09 848 25.04 -6.5 20.3 94 -7.4 18.7
01:25 1019 30.09 848 25.04 -6.4 20.5 93 -7.3 18.9
01:30 1019 30.09 848 25.04 -6.2 20.8 93 -7.1 19.1
01:35 1019 30.09 848 25.04 -6.1 21 92 -7.2 19
01:40 1019 30.09 848 25.04 -6.1 21.1 91 -7.3 18.9
01:45 1019 30.09 848 25.04 -6.4 20.4 93 -7.4 18.7
01:50 1019 30.09 848 25.04 -6.6 20.1 94 -7.5 18.5
01:55 1019 30.09 848 25.04 -6.6 20.1 94 -7.4 18.8
02:00 1019 30.09 848 25.04 -6.5 20.3 94 -7.3 18.8
02:05 1019 30.09 848 25.04 -6.5 20.4 94 -7.2 19
02:10 1019 30.09 848 25.04 -6.4 20.6 95 -7.1 19.3
02:15 1019 30.09 848 25.04 -6.2 20.8 95 -6.9 19.6
02:20 1019 30.09 848 25.04 -6 21.2 95 -6.7 19.9
02:25 1019 30.09 848 25.04 -5.9 21.5 95 -6.6 20.1
02:30 1019 30.09 848 25.04 -5.8 21.6 94 -6.6 20.2
02:35 1019 30.09 848 25.04 -5.7 21.7 95 -6.5 20.4
02:40 1019 30.09 848 25.04 -5.6 21.8 94 -6.4 20.4
02:45 1019 30.09 848 25.04 -5.7 21.8 95 -6.4 20.5
02:50 1019 30.09 848 25.04 -5.6 21.8 95 -6.4 20.5
02:55 1019 30.09 848 25.04 -5.6 21.9 95 -6.3 20.7
03:00 1019 30.09 848 25.04 -5.5 22.1 95 -6.1 20.9
03:05 1019 30.09 848 25.04 -5.4 22.4 95 -6 21.1
03:10 1019 30.09 848 25.04 -5.3 22.5 95 -5.9 21.3
03:15 1019 30.09 848 25.04 -5.2 22.6 93 -6.2 20.8
03:20 1019 30.09 848 25.04 -5.6 22 94 -6.4 20.5
03:25 1019 30.09 848 25.04 -5.7 21.8 94 -6.4 20.4
03:30 1019 30.09 848 25.04 -5.7 21.7 94 -6.5 20.3
03:35 1019 30.09 848 25.04 -5.9 21.4 95 -6.6 20.2
03:40 1019 30.09 848 25.04 -6 21.2 95 -6.7 20
03:45 1019 30.09 848 25.04 -6 21.2 96 -6.6 20.2
03:50 1019 30.09 848 25.04 -5.9 21.4 96 -6.5 20.4
03:55 1019 30.09 848 25.04 -5.8 21.5 96 -6.4 20.5
04:00 1019 30.09 848 25.04 -5.8 21.6 96 -6.4 20.6
04:05 1019 30.09 848 25.04 -5.8 21.6 96 -6.3 20.6
04:10 1019 30.09 848 25.04 -5.7 21.7 96 -6.3 20.6
04:15 1019 30.09 848 25.04 -5.8 21.6 96 -6.3 20.6
04:20 1019 30.09 848 25.04 -5.7 21.8 96 -6.2 20.8
04:25 1019 30.09 848 25.04 -5.6 22 96 -6.1 20.9
04:30 1019 30.09 848 25.04 -5.5 22.1 96 -6.1 21
04:35 1019 30.09 848 25.04 -5.6 22 95 -6.2 20.8
04:40 1019 30.09 848 25.04 -5.7 21.8 96 -6.3 20.7
04:45 1018 30.06 848 25.04 -5.7 21.7 96 -6.3 20.7
04:50 1018 30.06 848 25.04 -5.7 21.8 96 -6.2 20.8
04:55 1018 30.06 847 25.01 -5.6 22 96 -6.1 21
05:00 1018 30.06 847 25.01 -5.5 22.1 96 -6.1 21.1
05:05 1018 30.06 847 25.01 -5.5 22.2 95 -6.1 21
05:10 1018 30.06 847 25.01 -5.5 22.1 96 -6.1 21
05:15 1018 30.06 847 25.01 -5.5 22.1 96 -6.1 21.1
05:20 1018 30.06 847 25.01 -5.4 22.2 96 -6 21.2
05:25 1018 30.06 847 25.01 -5.3 22.5 95 -5.9 21.4
05:30 1018 30.06 847 25.01 -5.3 22.5 95 -5.9 21.4
05:35 1018 30.06 847 25.01 -5.2 22.7 95 -5.9 21.4
05:40 1018 30.06 847 25.01 -5.3 22.5 94 -6 21.1
05:45 1018 30.06 847 25.01 -5.4 22.3 95 -6.1 21.1
05:50 1018 30.06 847 25.01 -5.4 22.2 95 -6.1 21
05:55 1018 30.06 847 25.01 -5.4 22.2 95 -6.1 21
06:00 1017 30.03 847 25.01 -5.4 22.2 95 -6.1 21.1
06:05 1017 30.03 847 25.01 -5.4 22.3 96 -6 21.2
06:10 1018 30.06 847 25.01 -5.3 22.4 96 -5.9 21.4
06:15 1018 30.06 847 25.01 -5.3 22.5 96 -5.9 21.4
06:20 1018 30.06 847 25.01 -5.2 22.7 95 -5.8 21.5
06:25 1018 30.06 847 25.01 -5.2 22.6 95 -5.8 21.5
06:30 1018 30.06 847 25.01 -5.2 22.7 96 -5.8 21.6
06:35 1017 30.03 847 25.01 -5.1 22.7 96 -5.7 21.7
06:40 1017 30.03 847 25.01 -5.1 22.7 96 -5.8 21.6
06:45 1017 30.03 847 25.01 -5.1 22.8 96 -5.7 21.7
06:50 1017 30.03 847 25.01 -5.1 22.9 95 -5.7 21.7
06:55 1017 30.03 846 24.98 -5.1 22.8 95 -5.7 21.7
07:00 1017 30.03 846 24.98 -5.1 22.8 96 -5.7 21.8
07:05 1017 30.03 846 24.98 -5.1 22.8 96 -5.6 21.9
07:10 1017 30.03 846 24.98 -5 23 96 -5.5 22
07:15 1017 30.03 846 24.98 -4.9 23.2 96 -5.4 22.3
07:20 1017 30.03 846 24.98 -4.8 23.4 96 -5.4 22.4
07:25 1017 30.03 846 24.98 -4.8 23.4 95 -5.4 22.3
07:30 1017 30.03 846 24.98 -4.7 23.5 96 -5.3 22.5
07:35 1017 30.03 846 24.98 -4.6 23.7 96 -5.2 22.7
07:40 1017 30.03 846 24.98 -4.5 23.9 95 -5.2 22.7
07:45 1017 30.03 846 24.98 -4.5 23.8 95 -5.2 22.6
07:50 1017 30.03 846 24.98 -4.5 23.8 95 -5.2 22.6
07:55 1017 30.03 846 24.98 -4.5 24 96 -5.1 22.9
08:00 1017 30.03 846 24.98 -4.3 24.2 95 -4.9 23.1
08:05 1017 30.03 846 24.98 -4.2 24.5 95 -4.8 23.4
08:10 1017 30.03 846 24.98 -3.9 24.9 96 -4.4 24
08:15 1017 30.03 846 24.98 -3.6 25.5 95 -4.2 24.4
08:20 1017 30.03 846 24.98 -3.4 25.9 94 -4.3 24.3
08:25 1017 30.03 846 24.98 -3.4 25.9 93 -4.4 24.1
08:30 1017 30.03 846 24.98 -3.5 25.7 93 -4.5 23.9
08:35 1017 30.03 846 24.98 -3.7 25.4 93 -4.6 23.7
08:40 1017 30.03 846 24.98 -3.8 25.2 94 -4.6 23.7
08:45 1017 30.03 846 24.98 -3.9 25 94 -4.7 23.6
08:50 1017 30.03 846 24.98 -3.9 25 95 -4.7 23.6
08:55 1017 30.03 846 24.98 -3.8 25.2 94 -4.6 23.8
09:00 1017 30.03 846 24.98 -3.8 25.2 94 -4.6 23.7
09:05 1017 30.03 846 24.98 -3.8 25.2 93 -4.7 23.6
09:10 1017 30.03 846 24.98 -3.7 25.3 94 -4.6 23.8
09:15 1017 30.03 846 24.98 -3.5 25.7 92 -4.6 23.8
09:20 1017 30.03 846 24.98 -3.6 25.5 92 -4.7 23.5
09:25 1017 30.03 846 24.98 -3.5 25.7 92 -4.7 23.6
09:30 1017 30.03 846 24.98 -3.3 26.1 90 -4.6 23.6
09:35 1017 30.03 846 24.98 -3.2 26.2 90 -4.6 23.7
09:40 1017 30.03 846 24.98 -3.1 26.4 89 -4.7 23.5
09:45 1017 30.03 846 24.98 -3.1 26.4 87 -4.9 23.2
09:50 1017 30.03 846 24.98 -2.8 27 87 -4.6 23.7
09:55 1017 30.03 846 24.98 -2.6 27.4 86 -4.5 23.8
10:00 1017 30.03 846 24.98 -2.3 27.8 84 -4.7 23.5
10:05 1017 30.03 846 24.98 -2.1 28.2 84 -4.6 23.8
10:10 1017 30.03 846 24.98 -1.9 28.5 84 -4.3 24.3
10:15 1017 30.03 846 24.98 -1.9 28.6 83 -4.4 24.1
10:20 1017 30.03 846 24.98 -1.7 28.9 83 -4.3 24.3
10:25 1017 30.03 846 24.98 -1.8 28.8 80 -4.8 23.4
10:30 1017 30.03 846 24.98 -2 28.4 84 -4.3 24.2
10:35 1017 30.03 846 24.98 -2 28.4 84 -4.4 24
10:40 1017 30.03 846 24.98 -2.1 28.2 83 -4.6 23.7
10:45 1017 30.03 846 24.98 -2.1 28.2 82 -4.8 23.4
10:50 1017 30.03 846 24.98 -2 28.5 82 -4.7 23.5
10:55 1017 30.03 846 24.98 -1.6 29.1 81 -4.5 23.9
11:00 1017 30.03 846 24.98 -1.3 29.7 79 -4.5 24
11:05 1017 30.03 846 24.98 -1.2 29.9 78 -4.5 23.9
11:10 1017 30.03 846 24.98 -1.3 29.7 80 -4.4 24.2
11:15 1017 30.03 846 24.98 -0.9 30.4 78 -4.2 24.4
11:20 1017 30.03 846 24.98 -0.6 31 77 -4.1 24.6
11:25 1017 30.03 846 24.98 -0.2 31.6 76 -3.9 24.9
11:30 1017 30.03 846 24.98 -0.1 31.8 75 -4 24.7
11:35 1017 30.03 846 24.98 -0.2 31.6 75 -4.1 24.6
11:40 1016 30 846 24.98 -0.3 31.5 74 -4.3 24.2
11:45 1016 30 846 24.98 -0.2 31.7 74 -4.2 24.4
11:50 1016 30 845 24.95 -0.1 31.8 73 -4.4 24.1
11:55 1016 30 845 24.95 -0.2 31.6 74 -4.3 24.3
12:00 1016 30 845 24.95 -0.2 31.7 73 -4.4 24.1
12:05 1016 30 845 24.95 -0.3 31.4 75 -4.2 24.4
12:10 1016 30 845 24.95 -0.4 31.2 75 -4.4 24.1
12:15 1016 30 845 24.95 -0.2 31.6 74 -4.3 24.2
12:20 1016 30 845 24.95 0.2 32.4 72 -4.2 24.5
12:25 1016 30 845 24.95 0.7 33.2 71 -4.1 24.7
12:30 1016 30 845 24.95 0.4 32.8 69 -4.6 23.6
12:35 1016 30 845 24.95 0.3 32.6 69 -4.8 23.4
12:40 1016 30 845 24.95 0.1 32.1 66 -5.5 22.1
12:45 1016 30 845 24.95 0.4 32.7 66 -5.3 22.5
12:50 1016 30 845 24.95 0.5 32.9 65 -5.4 22.3
12:55 1016 30 845 24.95 0.5 32.9 66 -5.1 22.9
13:00 1016 30 845 24.95 1 33.7 63 -5.3 22.4
13:05 1016 30 845 24.95 0.5 33 64 -5.4 22.3
13:10 1016 30 845 24.95 0.1 32.2 66 -5.5 22.1
13:15 1015 29.97 845 24.95 -0.1 31.8 66 -5.8 21.5
13:20 1015 29.97 845 24.95 -0.3 31.5 67 -5.7 21.7
13:25 1015 29.97 845 24.95 -0.4 31.3 67 -5.8 21.6
13:30 1015 29.97 845 24.95 -0.5 31.1 68 -5.6 21.9
13:35 1015 29.97 845 24.95 -0.5 31.2 68 -5.7 21.8
13:40 1015 29.97 845 24.95 -0.5 31.2 68 -5.7 21.8
13:45 1015 29.97 845 24.95 -0.6 31 70 -5.4 22.2
13:50 1015 29.97 844 24.92 -0.5 31.1 68 -5.7 21.7
13:55 1015 29.97 844 24.92 -0.2 31.6 67 -5.7 21.8
14:00 1015 29.97 844 24.92 -0.1 31.8 68 -5.4 22.4
14:05 1015 29.97 844 24.92 0.2 32.3 69 -4.9 23.1
14:10 1015 29.97 844 24.92 0.3 32.5 68 -4.9 23.2
14:15 1015 29.97 844 24.92 -0 32 69 -5.1 22.8
14:20 1015 29.97 844 24.92 -0.2 31.7 69 -5.2 22.7
14:25 1015 29.97 844 24.92 -0.3 31.5 72 -4.7 23.5
14:30 1015 29.97 844 24.92 -0.2 31.7 70 -5 22.9
14:35 1015 29.97 844 24.92 0.1 32.2 68 -5 23
14:40 1015 29.97 844 24.92 0.2 32.3 70 -4.7 23.5
14:45 1015 29.97 844 24.92 0.1 32.1 71 -4.6 23.7
14:50 1015 29.97 844 24.92 0.1 32.2 68 -5.1 22.9
14:55 1015 29.97 844 24.92 0.1 32.1 70 -4.7 23.5
15:00 1015 29.97 844 24.92 0.1 32.1 70 -4.7 23.5
15:05 1015 29.97 844 24.92 0.1 32.2 69 -5 23
15:10 1015 29.97 844 24.92 0.2 32.4 70 -4.7 23.5
15:15 1014 29.94 844 24.92 0.4 32.7 67 -5 23
15:20 1014 29.94 844 24.92 0.4 32.7 70 -4.4 24.1
15:25 1014 29.94 844 24.92 0.6 33.1 70 -4.3 24.3
15:30 1014 29.94 844 24.92 0.8 33.4 64 -5.4 22.4
15:35 1014 29.94 844 24.92 0.8 33.4 63 -5.4 22.2
15:40 1014 29.94 844 24.92 0.8 33.5 63 -5.4 22.2
15:45 1014 29.94 844 24.92 0.8 33.5 65 -4.9 23.1
15:50 1014 29.94 844 24.92 1 33.8 66 -4.6 23.7
15:55 1014 29.94 844 24.92 1.1 33.9 64 -4.9 23.2
16:00 1014 29.94 844 24.92 1.1 34 63 -5.3 22.5
16:05 1014 29.94 843 24.89 1.1 34 64 -4.9 23.2
16:10 1014 29.94 843 24.89 1.1 33.9 65 -4.8 23.4
16:15 1014 29.94 843 24.89 1.1 33.9 68 -4.1 24.6
16:20 1014 29.94 843 24.89 0.8 33.4 67 -4.7 23.5
16:25 1014 29.94 843 24.89 0.5 32.9 67 -4.9 23.2
16:30 1014 29.94 843 24.89 0.3 32.6 69 -4.7 23.5
16:35 1014 29.94 843 24.89 0.1 32.3 72 -4.4 24.1
16:40 1014 29.94 843 24.89 0 32.1 75 -3.9 25
16:45 1014 29.94 843 24.89 0.1 32.3 71 -4.4 24
16:50 1014 29.94 843 24.89 0.2 32.3 72 -4.3 24.3
16:55 1014 29.94 843 24.89 -0.1 31.9 72 -4.5 23.9
17:00 1014 29.94 843 24.89 -0.1 31.8 74 -4.1 24.6
17:05 1014 29.94 843 24.89 -0.3 31.5 74 -4.4 24
17:10 1014 29.94 843 24.89 -0.4 31.2 75 -4.3 24.2
17:15 1014 29.94 843 24.89 -0.5 31.1 75 -4.5 24
17:20 1013 29.91 843 24.89 -0.5 31.2 76 -4.2 24.5
17:25 1013 29.91 843 24.89 -0.5 31.1 79 -3.7 25.4
17:30 1013 29.91 843 24.89 -0.7 30.8 79 -3.9 25
17:35 1013 29.91 842 24.86 -0.9 30.5 78 -4.2 24.4
17:40 1013 29.91 842 24.86 -1 30.2 80 -4 24.8
17:45 1013 29.91 842 24.86 -1 30.1 81 -3.9 24.9
17:50 1013 29.91 842 24.86 -1.2 29.8 82 -3.9 24.9
17:55 1013 29.91 842 24.86 -1.3 29.7 83 -3.8 25.2
18:00 1013 29.91 842 24.86 -1.3 29.7 84 -3.6 25.5
18:05 1013 29.91 842 24.86 -1.3 29.6 84 -3.7 25.3
18:10 1013 29.91 842 24.86 -1.3 29.7 84 -3.7 25.3
18:15 1013 29.91 842 24.86 -1.3 29.7 84 -3.6 25.4
18:20 1013 29.91 842 24.86 -1.2 29.8 84 -3.6 25.5
18:25 1013 29.91 842 24.86 -1.2 29.8 84 -3.6 25.5
18:30 1013 29.91 842 24.86 -1.2 29.8 84 -3.6 25.5
18:35 1013 29.91 842 24.86 -1.2 29.8 84 -3.7 25.4
18:40 1013 29.91 842 24.86 -1.3 29.7 84 -3.6 25.5
18:45 1013 29.91 842 24.86 -1.3 29.6 85 -3.6 25.5
18:50 1013 29.91 842 24.86 -1.4 29.6 86 -3.4 25.9
18:55 1013 29.91 842 24.86 -1.4 29.4 85 -3.6 25.6
19:00 1013 29.91 842 24.86 -1.5 29.4 84 -3.8 25.1
19:05 1013 29.91 842 24.86 -1.4 29.4 84 -3.9 25
19:10 1013 29.91 842 24.86 -1.5 29.4 83 -4 24.7
19:15 1013 29.91 842 24.86 -1.5 29.3 82 -4.2 24.5
19:20 1012 29.88 842 24.86 -1.5 29.3 81 -4.3 24.2
19:25 1012 29.88 842 24.86 -1.5 29.4 81 -4.4 24.1
19:30 1012 29.88 842 24.86 -1.5 29.3 80 -4.5 23.8
19:35 1012 29.88 842 24.86 -1.7 29 81 -4.4 24
19:40 1012 29.88 841 24.83 -1.7 28.9 81 -4.6 23.8
19:45 1012 29.88 841 24.83 -1.7 28.9 82 -4.4 24.1
19:50 1012 29.88 841 24.83 -1.8 28.8 83 -4.3 24.3
19:55 1012 29.88 841 24.83 -1.8 28.7 82 -4.4 24
20:00 1012 29.88 841 24.83 -1.8 28.7 80 -4.8 23.3
20:05 1012 29.88 841 24.83 -1.8 28.8 80 -4.8 23.4
20:10 1012 29.88 841 24.83 -1.6 29 80 -4.7 23.6
20:15 1012 29.88 841 24.83 -1.7 29 80 -4.7 23.5
20:20 1012 29.88 841 24.83 -1.7 29 80 -4.7 23.6
20:25 1012 29.88 841 24.83 -1.7 29 80 -4.7 23.5
20:30 1012 29.88 841 24.83 -1.6 29.1 79 -4.8 23.4
20:35 1012 29.88 841 24.83 -1.6 29 79 -4.8 23.3
20:40 1012 29.88 841 24.83 -1.7 29 81 -4.5 23.8
20:45 1012 29.88 841 24.83 -1.8 28.7 81 -4.7 23.5
20:50 1012 29.88 841 24.83 -1.8 28.8 78 -5.1 22.8
20:55 1012 29.88 841 24.83 -1.8 28.7 80 -4.8 23.3
21:00 1012 29.88 841 24.83 -2 28.4 81 -4.8 23.4
21:05 1012 29.88 841 24.83 -2 28.4 81 -4.8 23.4
21:10 1012 29.88 841 24.83 -2.1 28.2 81 -5 23
21:15 1011 29.85 841 24.83 -2.2 28.1 80 -5.2 22.6
21:20 1011 29.85 841 24.83 -2.2 28 81 -5.1 22.9
21:25 1011 29.85 841 24.83 -2.2 28 82 -5 23.1
21:30 1011 29.85 841 24.83 -2.3 27.9 81 -5.2 22.7
21:35 1011 29.85 841 24.83 -2.3 27.9 82 -5 23
21:40 1011 29.85 841 24.83 -2.3 27.9 82 -5 22.9
21:45 1011 29.85 841 24.83 -2.3 27.9 79 -5.4 22.2
21:50 1011 29.85 841 24.83 -2.2 28.1 78 -5.5 22.1
21:55 1011 29.85 841 24.83 -2 28.3 77 -5.5 22.2
22:00 1012 29.88 841 24.83 -1.9 28.5 76 -5.6 21.9
22:05 1012 29.88 841 24.83 -1.9 28.6 76 -5.5 22
22:10 1012 29.88 841 24.83 -1.8 28.7 76 -5.4 22.2
22:15 1012 29.88 841 24.83 -1.7 29 76 -5.5 22.2
22:20 1012 29.88 841 24.83 -1.6 29 76 -5.3 22.5
22:25 1012 29.88 841 24.83 -1.6 29.2 76 -5.2 22.7
22:30 1012 29.88 841 24.83 -1.5 29.4 77 -5 23.1
22:35 1012 29.88 841 24.83 -1.7 28.9 82 -4.5 24
22:40 1012 29.88 842 24.86 -2.1 28.1 88 -3.9 25.1
22:45 1012 29.88 842 24.86 -2.6 27.4 92 -3.8 25.2
22:50 1012 29.88 842 24.86 -2.7 27.1 93 -3.6 25.5
22:55 1012 29.88 842 24.86 -2.9 26.8 96 -3.5 25.7
23:00 1013 29.91 842 24.86 -3 26.6 97 -3.4 25.9
23:05 1013 29.91 842 24.86 -3 26.7 97 -3.4 25.9
23:10 1013 29.91 842 24.86 -3.2 26.3 90 -4.6 23.8
23:15 1013 29.91 842 24.86 -4.2 24.4 88 -6 21.3
23:20 1013 29.91 842 24.86 -5 22.9 88 -6.7 19.9
23:25 1013 29.91 842 24.86 -5.6 22 88 -7.2 19.1
23:30 1013 29.91 842 24.86 -5.9 21.3 88 -7.6 18.4
23:35 1013 29.91 842 24.86 -6.2 20.8 90 -7.7 18.2
23:40 1013 29.91 842 24.86 -6.6 20.2 89 -8.1 17.4
23:45 1013 29.91 842 24.86 -6.8 19.8 89 -8.2 17.2
23:50 1013 29.91 842 24.86 -6.9 19.5 88 -8.5 16.7
23:55 1013 29.91 842 24.86 -7 19.4 90 -8.4 16.9
24:00 1013 29.91 842 24.86 -7.1 19.2 90 -8.5 16.6